Observations for GUERNSEY AIRPORT, United Kingdom (EGJB)

EGJB 112150Z 17012KT 9999 BKN010 08/07 Q1020
EGJB 112050Z 16014KT 9999 BKN010 08/07 Q1020
EGJB 112020Z 15014KT 9999 FEW010 09/07 Q1020
EGJB 111950Z 16013KT 9999 SCT010 08/06 Q1020
EGJB 111920Z 15014KT 9999 FEW010 08/06 Q1020
EGJB 111850Z 15012KT 9999 FEW010 09/06 Q1020
EGJB 111820Z 15014KT 9999 FEW010 08/07 Q1020
EGJB 111750Z 16013KT 9999 FEW010 09/07 Q1020
EGJB 111720Z 16014KT 9999 FEW010 09/07 Q1021
EGJB 111650Z 16012KT 9999 FEW010 09/07 Q1021
EGJB 111620Z 16012KT 9999 FEW010 09/07 Q1021
EGJB 111550Z 15012KT 9999 FEW010 09/07 Q1021
EGJB 111520Z 15013KT 9999 FEW010 09/07 Q1021
EGJB 111450Z 16011KT 9999 FEW010 09/06 Q1021
EGJB 111420Z 16012KT 9999 SCT010 09/07 Q1022
EGJB 111350Z 17014KT 9999 FEW010 09/07 Q1022
EGJB 111320Z 17014KT 9999 SCT011 10/07 Q1023
EGJB 111250Z 17014KT 9999 SCT011 10/07 Q1023
EGJB 111220Z 16013KT 9999 SCT010 09/07 Q1023
EGJB 111150Z 16013KT 9999 FEW009 SCT011 10/07 Q1023 
EGJB 111120Z 16012KT 9999 FEW010 SCT013 10/08 Q1023 
EGJB 111050Z 15012KT 9999 SCT014 10/07 Q1024
EGJB 111020Z 16010KT 9999 SCT015 10/07 Q1024
EGJB 110950Z 16010KT 9999 SCT015 10/07 Q1024
EGJB 110920Z 16010KT 9999 SCT016 10/07 Q1024
EGJB 110850Z 16010KT 9999 SCT020 10/06 Q1025
EGJB 110820Z 15009KT 9999 SCT019 09/06 Q1025
EGJB 110750Z 16008KT 9999 SCT017 09/07 Q1024
EGJB 110720Z 15007KT 100V170 9999 FEW015 09/07 Q1024
EGJB 110650Z 16007KT 9999 FEW015 SCT032 09/07 Q1024 
EGJB 110620Z 16006KT 9999 FEW014 08/07 Q1025
EGJB 110550Z 16005KT 9999 FEW014 08/07 Q1025
EGJB 110520Z 16004KT 9999 FEW014 07/06 Q1025
EGJB 110450Z 17004KT 9999 FEW014 07/06 Q1025
EGJB 110420Z 18004KT 9999 FEW014 08/06 Q1025
EGJB 110350Z 18003KT 9999 FEW018 08/06 Q1026
EGJB 110250Z 22003KT 9999 FEW020 SCT032 08/06 Q1026 
EGJB 110150Z 23003KT 9999 FEW020 SCT032 08/06 Q1027 
EGJB 110050Z 25002KT 9999 FEW019 SCT035 09/07 Q1027 
EGJB 102350Z 24003KT 9999 FEW019 BKN037 09/07 Q1028 
EGJB 102250Z 26003KT 9999 FEW019 BKN038 09/07 Q1028 
EGJB 102150Z 29003KT 9999 FEW019 SCT038 08/06 Q1028